Time;durP1;ratioP1;P1;durP2;ratioP2;P2;SDS_P1;SDS_P2;PMS_P1;PMS_P2;Temp;Humidity;BMP_temperature;BMP_pressure;BME280_temperature;BME280_humidity;BME280_pressure;Samples;Min_cycle;Max_cycle;Signal;HPM_P1;HPM_P2
2021/11/02 00:01:10;;;;;;;41.68;22.70;;;;;;;7.36;70.93;93854.97;827665;71;30479;-79
2021/11/02 00:16:11;;;;;;;32.98;21.60;;;;;;;7.34;71.10;93843.23;827797;71;29638;-77
2021/11/02 00:31:15;;;;;;;33.98;20.92;;;;;;;7.21;70.84;93845.50;826663;71;32738;-79
2021/11/02 00:46:08;;;;;;;30.05;18.52;;;;;;;7.19;70.90;93833.80;827616;71;29719;-79
2021/11/02 01:01:17;;;;;;;32.13;18.62;;;;;;;7.15;71.61;93815.32;827046;71;33216;-79
2021/11/02 01:16:13;;;;;;;34.67;19.42;;;;;;;7.29;71.81;93831.59;828003;71;32350;-79
2021/11/02 01:31:15;;;;;;;30.60;19.48;;;;;;;7.40;71.74;93810.28;826669;71;33173;-79
2021/11/02 01:46:11;;;;;;;34.95;19.77;;;;;;;7.43;71.48;93795.34;827538;71;30146;-79
2021/11/02 02:01:12;;;;;;;31.07;18.85;;;;;;;7.46;71.89;93778.36;828092;71;29716;-77
2021/11/02 02:16:17;;;;;;;38.53;22.85;;;;;;;7.40;73.54;93755.98;828064;71;29781;-79
2021/11/02 02:31:13;;;;;;;34.58;21.30;;;;;;;7.55;73.74;93741.39;827736;71;30814;-79
2021/11/02 02:46:10;;;;;;;33.73;20.95;;;;;;;7.74;73.65;93715.21;828507;71;29675;-77
2021/11/02 03:16:19;;;;;;;33.10;21.35;;;;;;;8.09;73.84;93694.73;827817;71;32663;-78
2021/11/02 06:02:05;;;;;;;46.20;27.45;;;;;;;8.97;72.37;93602.12;828230;71;31494;-78
2021/11/02 06:31:15;;;;;;;38.40;25.10;;;;;;;9.31;73.05;93592.92;827990;71;32538;-78
2021/11/02 09:16:17;;;;;;;55.52;36.05;;;;;;;10.61;82.95;93610.79;823663;71;32742;-77
2021/11/02 09:31:28;;;;;;;37.23;22.65;;;;;;;11.16;85.08;93623.22;826281;71;32840;-79
2021/11/02 09:46:41;;;;;;;32.95;21.25;;;;;;;9.69;85.53;93585.36;821048;71;30402;-80
2021/11/02 10:01:23;;;;;;;34.30;20.72;;;;;;;9.33;89.69;93548.34;827545;71;29438;-78
2021/11/02 10:16:29;;;;;;;33.45;19.60;;;;;;;9.43;89.51;93534.98;827421;71;32220;-79
2021/11/02 10:31:19;;;;;;;27.52;18.37;;;;;;;9.77;90.36;93530.91;826938;71;32760;-79
2021/11/02 10:46:19;;;;;;;43.30;26.33;;;;;;;9.62;88.59;93481.02;829644;71;31614;-78
2021/11/02 11:01:13;;;;;;;32.50;20.68;;;;;;;9.94;88.42;93500.02;834737;71;31985;-77
2021/11/02 11:16:18;;;;;;;30.55;19.45;;;;;;;10.46;87.96;93505.79;826910;71;33204;-78
2021/11/02 11:31:09;;;;;;;27.90;17.70;;;;;;;10.69;87.68;93498.02;828081;71;30408;-79
2021/11/02 11:46:09;;;;;;;27.40;17.55;;;;;;;10.93;86.09;93501.13;827724;71;29715;-77
2021/11/02 12:01:21;;;;;;;27.13;16.67;;;;;;;10.82;86.11;93483.11;833078;71;32811;-76
2021/11/02 12:16:20;;;;;;;19.20;14.45;;;;;;;11.63;82.77;93473.46;827934;71;30222;-79
2021/11/02 12:31:19;;;;;;;28.17;17.92;;;;;;;11.38;84.48;93474.40;826562;71;32726;-78
2021/11/02 12:46:10;;;;;;;26.65;17.85;;;;;;;11.51;85.12;93472.62;827464;71;30295;-77
2021/11/02 13:01:38;;;;;;;24.30;15.88;;;;;;;11.83;83.23;93473.80;832419;71;32830;-79
2021/11/02 13:16:14;;;;;;;22.37;15.50;;;;;;;12.11;81.99;93479.90;821545;71;33310;-77
2021/11/02 13:31:33;;;;;;;17.92;14.33;;;;;;;12.19;80.75;93479.06;825738;71;33570;-77
2021/11/02 13:46:12;;;;;;;17.50;12.73;;;;;;;12.10;80.15;93477.03;827663;71;30301;-76
2021/11/02 14:01:33;;;;;;;20.55;14.38;;;;;;;12.07;80.44;93498.72;828471;71;30298;-77
2021/11/02 14:16:30;;;;;;;21.27;14.58;;;;;;;12.33;80.96;93487.44;823825;71;33009;-75
2021/11/02 14:31:08;;;;;;;18.25;15.03;;;;;;;12.06;80.34;93488.73;827642;71;29747;-78
2021/11/02 14:46:21;;;;;;;18.92;14.13;;;;;;;11.82;81.50;93500.64;826667;71;32718;-76
2021/11/02 15:16:10;;;;;;;10.65;8.75;;;;;;;11.21;81.38;93510.16;827520;71;30246;-80
2021/11/02 15:31:22;;;;;;;18.40;14.05;;;;;;;10.94;82.40;93517.13;826205;71;32990;-79
2021/11/02 15:46:11;;;;;;;14.60;11.30;;;;;;;10.56;83.47;93522.55;825937;71;30492;-82
2021/11/02 21:16:10;;;;;;;50.12;32.40;;;;;;;8.57;87.58;93860.86;828277;71;29531;-86
2021/11/02 21:31:17;;;;;;;50.43;32.13;;;;;;;8.61;86.71;93883.52;827755;71;32667;-84
2021/11/02 21:46:18;;;;;;;48.68;31.57;;;;;;;8.58;86.47;93909.49;827531;71;32702;-83
2021/11/02 22:01:12;;;;;;;41.20;28.73;;;;;;;8.54;85.96;93926.28;834032;71;31201;-84
2021/11/02 22:16:19;;;;;;;41.25;29.40;;;;;;;8.51;86.04;93936.00;827712;71;32786;-84
2021/11/02 22:31:11;;;;;;;43.42;31.00;;;;;;;8.46;85.96;93941.87;828706;71;30247;-87
2021/11/02 22:46:16;;;;;;;37.03;24.92;;;;;;;8.42;85.82;93952.11;828252;71;32771;-84
2021/11/02 23:01:28;;;;;;;34.48;23.92;;;;;;;8.35;85.80;93949.85;831879;71;32819;-83
2021/11/02 23:16:18;;;;;;;34.45;24.32;;;;;;;8.33;86.01;93977.31;827333;71;32744;-85
2021/11/02 23:31:09;;;;;;;31.05;22.58;;;;;;;8.27;85.56;93987.61;834074;71;30462;-84
2021/11/02 23:46:11;;;;;;;29.77;21.80;;;;;;;8.20;85.30;94006.27;828744;71;29685;-85
